createdAt,value
2023-05-21T00:02:00.352Z,16.04
2023-05-21T00:07:03.995Z,15.96
2023-05-21T00:12:08.544Z,15.85
2023-05-21T00:17:11.603Z,15.83
2023-05-21T00:22:14.621Z,15.71
2023-05-21T00:27:17.457Z,15.71
2023-05-21T00:32:20.290Z,15.68
2023-05-21T00:37:24.966Z,15.59
2023-05-21T00:42:30.937Z,15.53
2023-05-21T00:47:35.301Z,15.52
2023-05-21T00:52:42.433Z,15.45
2023-05-21T00:57:46.405Z,15.32
2023-05-21T01:02:50.178Z,15.26
2023-05-21T01:07:53.377Z,15.16
2023-05-21T01:12:58.408Z,15.05
2023-05-21T01:18:01.204Z,14.96
2023-05-21T01:23:04.232Z,14.86
2023-05-21T01:28:07.849Z,14.69
2023-05-21T01:33:13.403Z,14.59
2023-05-21T01:38:31.597Z,14.57
2023-05-21T01:43:44.712Z,14.58
2023-05-21T01:48:49.993Z,14.61
2023-05-21T01:53:52.889Z,14.64
2023-05-21T01:58:59.750Z,14.78
2023-05-21T02:04:02.858Z,14.86
2023-05-21T02:09:05.818Z,15.01
2023-05-21T02:14:10.652Z,15.17
2023-05-21T02:19:13.504Z,15.28
2023-05-21T02:24:17.191Z,15.47
2023-05-21T02:29:19.955Z,15.51
2023-05-21T02:34:22.867Z,15.77
2023-05-21T02:39:27.160Z,15.99
2023-05-21T02:44:30.901Z,16.15
2023-05-21T02:49:33.734Z,16.25
2023-05-21T02:54:36.817Z,16.43
2023-05-21T02:59:39.846Z,16.50
2023-05-21T03:04:46.669Z,16.74
2023-05-21T03:09:49.573Z,17.00
2023-05-21T03:14:52.294Z,17.30
2023-05-21T03:19:56.343Z,17.45
2023-05-21T03:25:00.543Z,17.80
2023-05-21T03:30:09.893Z,17.91
2023-05-21T03:35:26.571Z,17.94
2023-05-21T03:40:29.757Z,18.00
2023-05-21T03:45:33.035Z,17.99
2023-05-21T03:51:14.677Z,18.28
2023-05-21T03:56:18.070Z,18.44
2023-05-21T04:01:21.124Z,18.48
2023-05-21T04:06:25.905Z,18.45
2023-05-21T04:11:28.802Z,18.34
2023-05-21T04:16:31.620Z,18.37
2023-05-21T04:21:34.492Z,18.47
2023-05-21T04:26:38.459Z,18.62
2023-05-21T04:31:41.141Z,18.88
2023-05-21T04:36:45.839Z,19.21
2023-05-21T04:41:51.042Z,19.20
2023-05-21T04:46:55.145Z,19.39
2023-05-21T04:52:00.385Z,19.82
2023-05-21T04:57:07.389Z,19.90
2023-05-21T05:02:10.222Z,20.03
2023-05-21T05:07:13.841Z,20.59
2023-05-21T05:12:16.669Z,20.77
2023-05-21T05:17:20.263Z,20.68
2023-05-21T05:22:22.946Z,20.76
2023-05-21T05:27:26.121Z,20.62
2023-05-21T05:32:29.032Z,20.54
2023-05-21T05:37:33.218Z,20.98
2023-05-21T05:42:36.417Z,21.64
2023-05-21T05:47:45.971Z,21.78
2023-05-21T05:52:49.658Z,22.12
2023-05-21T05:57:53.525Z,21.73
2023-05-21T06:02:56.778Z,21.71
2023-05-21T06:07:59.565Z,22.09
2023-05-21T06:13:02.349Z,21.89
2023-05-21T06:18:05.524Z,21.63
2023-05-21T06:23:09.264Z,22.28
2023-05-21T06:28:12.731Z,22.65
2023-05-21T06:33:17.557Z,22.81
2023-05-21T06:38:20.420Z,22.86
2023-05-21T06:43:23.381Z,23.16
2023-05-21T06:48:45.091Z,23.45
2023-05-21T06:53:49.474Z,23.32
2023-05-21T06:58:54.877Z,23.28
2023-05-21T07:03:58.500Z,23.21
2023-05-21T07:09:02.404Z,23.58
2023-05-21T07:14:06.801Z,23.28
2023-05-21T07:19:12.028Z,23.84
2023-05-21T07:24:15.830Z,24.06
2023-05-21T07:29:18.647Z,24.13
2023-05-21T07:34:22.367Z,24.07
2023-05-21T07:39:25.260Z,24.44
2023-05-21T07:44:28.923Z,25.34
2023-05-21T07:49:32.308Z,26.28
2023-05-21T07:54:35.302Z,27.79
2023-05-21T07:59:38.754Z,28.31
2023-05-21T08:04:42.749Z,28.08
2023-05-21T08:09:46.673Z,28.21
2023-05-21T08:14:49.640Z,27.44
2023-05-21T08:19:52.892Z,28.39
2023-05-21T08:24:55.823Z,28.16
2023-05-21T08:29:58.927Z,28.10
2023-05-21T08:35:02.597Z,28.61
2023-05-21T08:40:20.344Z,29.92
2023-05-21T08:45:24.414Z,30.34
2023-05-21T08:50:28.847Z,30.45
2023-05-21T08:55:35.963Z,29.30
2023-05-21T09:00:38.866Z,28.00
2023-05-21T09:05:42.823Z,28.11
2023-05-21T09:10:51.103Z,29.13
2023-05-21T09:15:56.529Z,29.09
2023-05-21T09:21:27.168Z,29.25
2023-05-21T09:26:51.544Z,29.13
2023-05-21T09:31:55.928Z,29.64
2023-05-21T09:37:01.922Z,29.46
2023-05-21T09:42:05.120Z,28.21
2023-05-21T09:47:12.722Z,27.21
2023-05-21T09:52:24.471Z,26.54
2023-05-21T09:57:27.183Z,26.22
2023-05-21T10:02:32.397Z,26.12
2023-05-21T10:07:38.291Z,25.73
2023-05-21T10:12:47.721Z,25.51
2023-05-21T10:17:54.440Z,25.31
2023-05-21T10:23:01.576Z,25.02
2023-05-21T10:28:08.779Z,25.06
2023-05-21T10:33:18.098Z,25.49
2023-05-21T10:38:24.523Z,25.98
2023-05-21T10:43:47.878Z,27.52
2023-05-21T10:49:28.157Z,26.89
2023-05-21T10:54:59.111Z,25.63
2023-05-21T11:00:07.474Z,24.88
2023-05-21T11:05:11.790Z,24.60
2023-05-21T11:10:43.057Z,24.63
2023-05-21T11:16:02.762Z,25.22
2023-05-21T11:21:13.834Z,25.78
2023-05-21T11:26:24.420Z,26.09
2023-05-21T11:31:35.452Z,25.69
2023-05-21T11:36:42.145Z,25.65
2023-05-21T11:42:02.458Z,25.14
2023-05-21T11:47:20.841Z,24.98
2023-05-21T11:52:28.463Z,25.00
2023-05-21T11:57:35.405Z,24.93
2023-05-21T12:02:45.177Z,25.15
2023-05-21T12:07:51.565Z,25.47
2023-05-21T12:12:57.533Z,25.57
2023-05-21T12:18:05.547Z,25.62
2023-05-21T12:23:20.307Z,25.38
2023-05-21T12:28:26.202Z,25.34
2023-05-21T12:33:39.963Z,25.25
2023-05-21T12:38:47.952Z,25.61
2023-05-21T12:43:55.207Z,25.70
2023-05-21T12:49:00.624Z,25.52
2023-05-21T12:54:07.245Z,25.52
2023-05-21T12:59:17.592Z,25.26
2023-05-21T13:04:21.346Z,25.28
2023-05-21T13:09:24.177Z,25.48
2023-05-21T13:14:26.860Z,25.49
2023-05-21T13:19:29.864Z,25.42
2023-05-21T13:24:32.817Z,25.67
2023-05-21T13:29:36.276Z,25.52
2023-05-21T13:34:39.072Z,25.48
2023-05-21T13:39:41.785Z,25.44
2023-05-21T13:44:44.738Z,25.34
2023-05-21T13:49:47.600Z,25.15
2023-05-21T13:54:50.345Z,25.02
2023-05-21T13:59:54.224Z,24.90
2023-05-21T14:04:57.154Z,24.79
2023-05-21T14:10:00.019Z,24.73
2023-05-21T14:15:02.587Z,24.72
2023-05-21T14:20:09.012Z,24.62
2023-05-21T14:25:11.717Z,24.53
2023-05-21T14:30:15.660Z,24.36
2023-05-21T14:35:18.301Z,24.25
2023-05-21T14:40:21.606Z,24.22
2023-05-21T14:45:24.405Z,24.00
2023-05-21T14:50:27.062Z,23.99
2023-05-21T14:55:31.135Z,23.97
2023-05-21T15:00:34.852Z,23.91
2023-05-21T15:05:37.983Z,23.82
2023-05-21T15:10:42.022Z,23.72
2023-05-21T15:15:45.018Z,23.62
2023-05-21T15:20:47.816Z,23.48
2023-05-21T15:25:50.887Z,23.34
2023-05-21T15:30:53.753Z,23.23
2023-05-21T15:35:56.711Z,23.12
2023-05-21T15:40:59.705Z,23.02
2023-05-21T15:46:02.591Z,22.97
2023-05-21T15:51:05.586Z,22.89
2023-05-21T15:56:09.413Z,22.82
2023-05-21T16:01:12.280Z,22.68
2023-05-21T16:06:15.219Z,22.65
2023-05-21T16:11:17.929Z,22.56
2023-05-21T16:16:23.791Z,22.52
2023-05-21T16:21:27.449Z,22.46
2023-05-21T16:26:30.497Z,22.41
2023-05-21T16:31:33.351Z,22.32
2023-05-21T16:36:37.759Z,22.22
2023-05-21T16:41:40.411Z,22.13
2023-05-21T16:46:43.008Z,22.06
2023-05-21T16:51:45.855Z,21.96
2023-05-21T16:56:48.834Z,21.89
2023-05-21T17:01:52.840Z,21.82
2023-05-21T17:06:55.595Z,21.75
2023-05-21T17:11:58.453Z,21.64
2023-05-21T17:17:02.058Z,21.55
2023-05-21T17:22:06.508Z,21.39
2023-05-21T17:27:09.372Z,21.28
2023-05-21T17:32:12.557Z,21.18
2023-05-21T17:37:15.413Z,21.15
2023-05-21T17:42:18.526Z,21.07
2023-05-21T17:47:21.388Z,21.03
2023-05-21T17:52:27.825Z,20.97
2023-05-21T17:57:30.510Z,20.92
2023-05-21T18:02:33.388Z,20.81
2023-05-21T18:07:40.904Z,20.72
2023-05-21T18:12:46.602Z,20.65
2023-05-21T18:17:49.461Z,20.63
2023-05-21T18:22:52.442Z,20.47
2023-05-21T18:27:55.061Z,20.81
2023-05-21T18:32:57.933Z,21.11
2023-05-21T18:38:01.692Z,21.34
2023-05-21T18:43:06.731Z,21.43
2023-05-21T18:48:09.380Z,21.46
2023-05-21T18:53:12.079Z,21.32
2023-05-21T18:58:14.817Z,21.29
2023-05-21T19:03:17.474Z,21.19
2023-05-21T19:08:20.441Z,21.09
2023-05-21T19:13:23.959Z,21.06
2023-05-21T19:18:31.859Z,21.06
2023-05-21T19:23:48.506Z,21.01
2023-05-21T19:28:55.690Z,20.92
2023-05-21T19:33:59.433Z,20.86
2023-05-21T19:39:02.544Z,20.81
2023-05-21T19:44:06.588Z,20.77
2023-05-21T19:49:11.406Z,20.70
2023-05-21T19:54:14.171Z,20.61
2023-05-21T19:59:18.609Z,20.42
2023-05-21T20:04:21.516Z,20.39
2023-05-21T20:09:24.458Z,20.24
2023-05-21T20:14:27.159Z,20.06
2023-05-21T20:19:30.743Z,19.98
2023-05-21T20:24:33.640Z,19.89
2023-05-21T20:29:36.695Z,19.85
2023-05-21T20:34:47.257Z,19.75
2023-05-21T20:39:58.207Z,19.68
2023-05-21T20:45:02.202Z,19.64
2023-05-21T20:50:07.534Z,19.60
2023-05-21T20:55:10.821Z,19.61
2023-05-21T21:00:16.256Z,19.58
2023-05-21T21:05:20.356Z,19.53
2023-05-21T21:10:23.281Z,19.51
2023-05-21T21:15:26.097Z,19.48
2023-05-21T21:20:28.803Z,19.43
2023-05-21T21:25:31.811Z,19.43
2023-05-21T21:30:34.558Z,19.45
2023-05-21T21:35:37.207Z,19.35
2023-05-21T21:40:40.313Z,19.35
2023-05-21T21:45:43.358Z,19.37
2023-05-21T21:50:46.268Z,19.35
2023-05-21T21:55:50.847Z,19.37
2023-05-21T22:00:53.828Z,19.36
2023-05-21T22:05:56.756Z,19.28
2023-05-21T22:10:59.527Z,19.19
2023-05-21T22:16:02.555Z,19.15
2023-05-21T22:21:10.153Z,19.12
2023-05-21T22:26:13.663Z,19.12
2023-05-21T22:31:16.922Z,19.08
2023-05-21T22:36:19.707Z,19.06
2023-05-21T22:41:23.146Z,19.11
2023-05-21T22:46:25.874Z,19.11
2023-05-21T22:51:34.611Z,19.16
2023-05-21T22:56:37.767Z,19.19
2023-05-21T23:01:41.387Z,19.12
2023-05-21T23:06:44.058Z,19.12
2023-05-21T23:11:46.959Z,19.01
2023-05-21T23:16:49.808Z,18.95
2023-05-21T23:21:53.046Z,18.87
2023-05-21T23:27:02.117Z,18.80
2023-05-21T23:32:05.652Z,18.68
2023-05-21T23:37:08.414Z,18.67
2023-05-21T23:42:11.183Z,18.62
2023-05-21T23:47:13.931Z,18.56
2023-05-21T23:52:18.550Z,18.47
2023-05-21T23:57:21.365Z,18.37
